sensor_id;sensor_type;location;lat;lon;timestamp;P1;durP1;ratioP1;P2;durP2;ratioP2
40058;SDS011;25763;49.972;8.568;2023-04-03T00:01:06;10.50;;;9.80;;
40058;SDS011;25763;49.972;8.568;2023-04-03T00:03:32;10.35;;;9.75;;
40058;SDS011;25763;49.972;8.568;2023-04-03T00:05:58;10.40;;;9.70;;
40058;SDS011;25763;49.972;8.568;2023-04-03T00:08:23;9.65;;;9.05;;
40058;SDS011;25763;49.972;8.568;2023-04-03T00:10:49;10.13;;;9.52;;
40058;SDS011;25763;49.972;8.568;2023-04-03T00:13:14;10.95;;;10.20;;
40058;SDS011;25763;49.972;8.568;2023-04-03T00:15:40;11.13;;;9.40;;
40058;SDS011;25763;49.972;8.568;2023-04-03T00:18:06;10.55;;;9.75;;
40058;SDS011;25763;49.972;8.568;2023-04-03T00:20:32;10.70;;;10.02;;
40058;SDS011;25763;49.972;8.568;2023-04-03T00:22:58;10.35;;;9.75;;
40058;SDS011;25763;49.972;8.568;2023-04-03T00:25:24;10.25;;;9.65;;
40058;SDS011;25763;49.972;8.568;2023-04-03T00:27:50;9.98;;;9.38;;
40058;SDS011;25763;49.972;8.568;2023-04-03T00:30:17;10.30;;;9.68;;
40058;SDS011;25763;49.972;8.568;2023-04-03T00:32:44;10.55;;;9.95;;
40058;SDS011;25763;49.972;8.568;2023-04-03T00:35:09;10.20;;;9.50;;
40058;SDS011;25763;49.972;8.568;2023-04-03T00:37:35;10.43;;;9.82;;
40058;SDS011;25763;49.972;8.568;2023-04-03T00:40:01;9.55;;;8.95;;
40058;SDS011;25763;49.972;8.568;2023-04-03T00:42:27;10.23;;;9.63;;
40058;SDS011;25763;49.972;8.568;2023-04-03T00:47:21;10.68;;;9.98;;
40058;SDS011;25763;49.972;8.568;2023-04-03T00:49:47;10.05;;;9.45;;
40058;SDS011;25763;49.972;8.568;2023-04-03T00:52:15;9.20;;;8.60;;
40058;SDS011;25763;49.972;8.568;2023-04-03T00:54:42;10.25;;;9.63;;
40058;SDS011;25763;49.972;8.568;2023-04-03T00:57:10;9.63;;;9.02;;
40058;SDS011;25763;49.972;8.568;2023-04-03T00:59:38;9.90;;;9.30;;
40058;SDS011;25763;49.972;8.568;2023-04-03T01:02:09;9.93;;;9.32;;
40058;SDS011;25763;49.972;8.568;2023-04-03T01:04:36;10.02;;;9.43;;
40058;SDS011;25763;49.972;8.568;2023-04-03T01:07:07;10.30;;;9.70;;
40058;SDS011;25763;49.972;8.568;2023-04-03T01:09:56;10.88;;;10.15;;
40058;SDS011;25763;49.972;8.568;2023-04-03T01:12:25;11.27;;;10.57;;
40058;SDS011;25763;49.972;8.568;2023-04-03T01:15:05;10.30;;;9.70;;
40058;SDS011;25763;49.972;8.568;2023-04-03T01:17:37;10.13;;;9.52;;
40058;SDS011;25763;49.972;8.568;2023-04-03T01:25:35;10.38;;;9.68;;
40058;SDS011;25763;49.972;8.568;2023-04-03T01:28:04;26.85;;;9.95;;
40058;SDS011;25763;49.972;8.568;2023-04-03T01:30:32;9.57;;;8.98;;
40058;SDS011;25763;49.972;8.568;2023-04-03T01:33:00;10.37;;;9.77;;
40058;SDS011;25763;49.972;8.568;2023-04-03T01:35:26;10.10;;;9.48;;
40058;SDS011;25763;49.972;8.568;2023-04-03T01:37:51;9.98;;;9.32;;
40058;SDS011;25763;49.972;8.568;2023-04-03T01:40:17;10.07;;;9.48;;
40058;SDS011;25763;49.972;8.568;2023-04-03T01:42:42;9.68;;;9.07;;
40058;SDS011;25763;49.972;8.568;2023-04-03T01:45:08;10.05;;;9.32;;
40058;SDS011;25763;49.972;8.568;2023-04-03T01:47:34;10.73;;;10.10;;
40058;SDS011;25763;49.972;8.568;2023-04-03T01:49:59;9.93;;;9.32;;
40058;SDS011;25763;49.972;8.568;2023-04-03T01:52:24;10.10;;;9.50;;
40058;SDS011;25763;49.972;8.568;2023-04-03T01:54:50;10.48;;;9.77;;
40058;SDS011;25763;49.972;8.568;2023-04-03T01:57:16;10.15;;;9.55;;
40058;SDS011;25763;49.972;8.568;2023-04-03T01:59:41;9.75;;;9.15;;
40058;SDS011;25763;49.972;8.568;2023-04-03T02:02:07;9.57;;;8.98;;
40058;SDS011;25763;49.972;8.568;2023-04-03T02:04:32;10.35;;;9.75;;
40058;SDS011;25763;49.972;8.568;2023-04-03T02:06:58;9.40;;;8.80;;
40058;SDS011;25763;49.972;8.568;2023-04-03T02:09:23;10.57;;;9.98;;
40058;SDS011;25763;49.972;8.568;2023-04-03T02:11:48;10.48;;;9.88;;
40058;SDS011;25763;49.972;8.568;2023-04-03T02:14:14;10.35;;;9.75;;
40058;SDS011;25763;49.972;8.568;2023-04-03T02:16:39;10.25;;;9.65;;
40058;SDS011;25763;49.972;8.568;2023-04-03T02:19:05;9.43;;;8.82;;
40058;SDS011;25763;49.972;8.568;2023-04-03T02:21:30;9.65;;;9.05;;
40058;SDS011;25763;49.972;8.568;2023-04-03T02:23:56;9.93;;;9.32;;
40058;SDS011;25763;49.972;8.568;2023-04-03T02:26:21;9.85;;;9.25;;
40058;SDS011;25763;49.972;8.568;2023-04-03T02:28:46;10.60;;;9.95;;
40058;SDS011;25763;49.972;8.568;2023-04-03T02:31:12;10.00;;;9.40;;
40058;SDS011;25763;49.972;8.568;2023-04-03T02:33:37;10.38;;;9.77;;
40058;SDS011;25763;49.972;8.568;2023-04-03T02:36:06;9.65;;;9.05;;
40058;SDS011;25763;49.972;8.568;2023-04-03T02:38:32;10.85;;;10.15;;
40058;SDS011;25763;49.972;8.568;2023-04-03T02:41:01;10.57;;;9.98;;
40058;SDS011;25763;49.972;8.568;2023-04-03T02:43:30;11.25;;;10.55;;
40058;SDS011;25763;49.972;8.568;2023-04-03T02:45:56;10.15;;;9.55;;
40058;SDS011;25763;49.972;8.568;2023-04-03T02:48:22;10.55;;;9.95;;
40058;SDS011;25763;49.972;8.568;2023-04-03T02:50:47;10.43;;;9.82;;
40058;SDS011;25763;49.972;8.568;2023-04-03T02:53:13;10.68;;;9.88;;
40058;SDS011;25763;49.972;8.568;2023-04-03T02:55:39;10.63;;;9.93;;
40058;SDS011;25763;49.972;8.568;2023-04-03T02:58:04;10.27;;;9.68;;
40058;SDS011;25763;49.972;8.568;2023-04-03T03:00:30;10.30;;;9.60;;
40058;SDS011;25763;49.972;8.568;2023-04-03T03:02:55;10.70;;;10.00;;
40058;SDS011;25763;49.972;8.568;2023-04-03T03:05:21;9.85;;;9.25;;
40058;SDS011;25763;49.972;8.568;2023-04-03T03:07:47;9.73;;;9.13;;
40058;SDS011;25763;49.972;8.568;2023-04-03T03:10:13;10.55;;;9.95;;
40058;SDS011;25763;49.972;8.568;2023-04-03T03:12:38;9.88;;;9.27;;
40058;SDS011;25763;49.972;8.568;2023-04-03T03:15:04;10.45;;;9.85;;
40058;SDS011;25763;49.972;8.568;2023-04-03T03:17:29;10.15;;;9.55;;
40058;SDS011;25763;49.972;8.568;2023-04-03T03:19:55;9.90;;;9.30;;
40058;SDS011;25763;49.972;8.568;2023-04-03T03:22:20;10.38;;;9.77;;
40058;SDS011;25763;49.972;8.568;2023-04-03T03:24:46;11.25;;;10.48;;
40058;SDS011;25763;49.972;8.568;2023-04-03T03:27:11;9.73;;;9.13;;
40058;SDS011;25763;49.972;8.568;2023-04-03T03:29:37;10.07;;;9.40;;
40058;SDS011;25763;49.972;8.568;2023-04-03T03:32:02;9.98;;;9.38;;
40058;SDS011;25763;49.972;8.568;2023-04-03T03:34:28;10.18;;;9.48;;
40058;SDS011;25763;49.972;8.568;2023-04-03T03:36:53;10.38;;;9.77;;
40058;SDS011;25763;49.972;8.568;2023-04-03T03:39:19;10.27;;;9.68;;
40058;SDS011;25763;49.972;8.568;2023-04-03T03:41:44;10.48;;;9.77;;
40058;SDS011;25763;49.972;8.568;2023-04-03T03:44:09;10.20;;;9.60;;
40058;SDS011;25763;49.972;8.568;2023-04-03T03:46:35;9.88;;;9.27;;
40058;SDS011;25763;49.972;8.568;2023-04-03T03:49:00;9.95;;;9.35;;
40058;SDS011;25763;49.972;8.568;2023-04-03T03:51:25;9.48;;;8.88;;
40058;SDS011;25763;49.972;8.568;2023-04-03T03:53:51;10.30;;;9.70;;
40058;SDS011;25763;49.972;8.568;2023-04-03T03:56:16;9.88;;;9.27;;
40058;SDS011;25763;49.972;8.568;2023-04-03T03:58:41;9.45;;;8.85;;
40058;SDS011;25763;49.972;8.568;2023-04-03T04:01:07;9.27;;;8.68;;
40058;SDS011;25763;49.972;8.568;2023-04-03T04:03:32;9.55;;;8.95;;
40058;SDS011;25763;49.972;8.568;2023-04-03T04:05:58;9.80;;;9.20;;
40058;SDS011;25763;49.972;8.568;2023-04-03T04:08:24;10.10;;;9.50;;
40058;SDS011;25763;49.972;8.568;2023-04-03T04:10:49;9.40;;;8.80;;
40058;SDS011;25763;49.972;8.568;2023-04-03T04:13:15;10.40;;;9.68;;
40058;SDS011;25763;49.972;8.568;2023-04-03T04:15:40;11.02;;;10.13;;
40058;SDS011;25763;49.972;8.568;2023-04-03T04:18:06;9.25;;;8.65;;
40058;SDS011;25763;49.972;8.568;2023-04-03T04:20:32;9.15;;;8.55;;
40058;SDS011;25763;49.972;8.568;2023-04-03T04:22:57;9.52;;;8.93;;
40058;SDS011;25763;49.972;8.568;2023-04-03T04:25:22;9.68;;;9.07;;
40058;SDS011;25763;49.972;8.568;2023-04-03T04:27:48;9.63;;;9.02;;
40058;SDS011;25763;49.972;8.568;2023-04-03T04:30:13;8.90;;;8.30;;
40058;SDS011;25763;49.972;8.568;2023-04-03T04:32:39;8.93;;;8.32;;
40058;SDS011;25763;49.972;8.568;2023-04-03T04:35:04;8.90;;;8.30;;
40058;SDS011;25763;49.972;8.568;2023-04-03T04:37:30;8.90;;;8.30;;
40058;SDS011;25763;49.972;8.568;2023-04-03T04:39:56;9.07;;;8.48;;
40058;SDS011;25763;49.972;8.568;2023-04-03T04:42:21;8.13;;;7.63;;
40058;SDS011;25763;49.972;8.568;2023-04-03T04:44:47;8.48;;;7.97;;
40058;SDS011;25763;49.972;8.568;2023-04-03T04:47:12;8.75;;;8.15;;
40058;SDS011;25763;49.972;8.568;2023-04-03T04:49:37;9.05;;;8.45;;
40058;SDS011;25763;49.972;8.568;2023-04-03T04:52:03;8.45;;;7.95;;
40058;SDS011;25763;49.972;8.568;2023-04-03T04:54:28;9.10;;;8.50;;
40058;SDS011;25763;49.972;8.568;2023-04-03T04:56:54;9.13;;;8.52;;
40058;SDS011;25763;49.972;8.568;2023-04-03T04:59:19;9.10;;;8.50;;
40058;SDS011;25763;49.972;8.568;2023-04-03T05:01:45;9.18;;;8.48;;
40058;SDS011;25763;49.972;8.568;2023-04-03T05:04:10;9.18;;;8.57;;
40058;SDS011;25763;49.972;8.568;2023-04-03T05:06:37;9.68;;;9.02;;
40058;SDS011;25763;49.972;8.568;2023-04-03T05:09:03;9.05;;;8.45;;
40058;SDS011;25763;49.972;8.568;2023-04-03T05:11:28;8.75;;;8.15;;
40058;SDS011;25763;49.972;8.568;2023-04-03T05:13:55;9.30;;;8.70;;
40058;SDS011;25763;49.972;8.568;2023-04-03T05:16:20;9.55;;;8.85;;
40058;SDS011;25763;49.972;8.568;2023-04-03T05:18:45;9.05;;;8.45;;
40058;SDS011;25763;49.972;8.568;2023-04-03T05:21:11;9.50;;;8.80;;
40058;SDS011;25763;49.972;8.568;2023-04-03T05:23:36;8.80;;;8.20;;
40058;SDS011;25763;49.972;8.568;2023-04-03T05:26:01;9.80;;;9.20;;
40058;SDS011;25763;49.972;8.568;2023-04-03T05:28:27;9.25;;;8.65;;
40058;SDS011;25763;49.972;8.568;2023-04-03T05:30:53;9.68;;;9.02;;
40058;SDS011;25763;49.972;8.568;2023-04-03T05:33:20;9.20;;;8.57;;
40058;SDS011;25763;49.972;8.568;2023-04-03T05:35:45;9.45;;;8.85;;
40058;SDS011;25763;49.972;8.568;2023-04-03T05:38:11;10.48;;;9.85;;
40058;SDS011;25763;49.972;8.568;2023-04-03T05:40:36;9.18;;;8.57;;
40058;SDS011;25763;49.972;8.568;2023-04-03T05:43:02;9.60;;;9.00;;
40058;SDS011;25763;49.972;8.568;2023-04-03T05:45:28;11.40;;;10.45;;
40058;SDS011;25763;49.972;8.568;2023-04-03T05:47:53;10.38;;;9.45;;
40058;SDS011;25763;49.972;8.568;2023-04-03T05:50:18;9.20;;;8.60;;
40058;SDS011;25763;49.972;8.568;2023-04-03T05:52:44;9.13;;;8.52;;
40058;SDS011;25763;49.972;8.568;2023-04-03T05:55:11;9.25;;;8.65;;
40058;SDS011;25763;49.972;8.568;2023-04-03T05:57:37;9.60;;;9.00;;
40058;SDS011;25763;49.972;8.568;2023-04-03T06:00:03;8.85;;;8.25;;
40058;SDS011;25763;49.972;8.568;2023-04-03T06:02:31;10.02;;;9.43;;
40058;SDS011;25763;49.972;8.568;2023-04-03T06:04:56;9.40;;;8.70;;
40058;SDS011;25763;49.972;8.568;2023-04-03T06:07:22;9.27;;;8.68;;
40058;SDS011;25763;49.972;8.568;2023-04-03T06:09:52;8.63;;;8.13;;
40058;SDS011;25763;49.972;8.568;2023-04-03T06:12:18;9.57;;;8.88;;
40058;SDS011;25763;49.972;8.568;2023-04-03T06:14:43;9.63;;;9.02;;
40058;SDS011;25763;49.972;8.568;2023-04-03T06:17:09;9.35;;;8.75;;
40058;SDS011;25763;49.972;8.568;2023-04-03T06:19:35;9.63;;;9.02;;
40058;SDS011;25763;49.972;8.568;2023-04-03T06:22:01;10.15;;;9.50;;
40058;SDS011;25763;49.972;8.568;2023-04-03T06:24:26;9.90;;;9.30;;
40058;SDS011;25763;49.972;8.568;2023-04-03T06:26:52;9.52;;;8.93;;
40058;SDS011;25763;49.972;8.568;2023-04-03T06:29:18;10.00;;;9.40;;
40058;SDS011;25763;49.972;8.568;2023-04-03T06:31:44;8.93;;;8.32;;
40058;SDS011;25763;49.972;8.568;2023-04-03T06:34:11;9.70;;;9.10;;
40058;SDS011;25763;49.972;8.568;2023-04-03T06:36:37;9.30;;;8.70;;
40058;SDS011;25763;49.972;8.568;2023-04-03T06:39:03;9.82;;;9.23;;
40058;SDS011;25763;49.972;8.568;2023-04-03T06:41:29;9.57;;;8.95;;
40058;SDS011;25763;49.972;8.568;2023-04-03T06:43:55;9.63;;;8.98;;
40058;SDS011;25763;49.972;8.568;2023-04-03T06:46:24;10.50;;;9.48;;
40058;SDS011;25763;49.972;8.568;2023-04-03T06:48:50;9.55;;;8.95;;
40058;SDS011;25763;49.972;8.568;2023-04-03T06:51:23;10.70;;;9.90;;
40058;SDS011;25763;49.972;8.568;2023-04-03T06:53:49;9.05;;;8.45;;
40058;SDS011;25763;49.972;8.568;2023-04-03T06:56:16;9.82;;;9.23;;
40058;SDS011;25763;49.972;8.568;2023-04-03T06:58:42;9.18;;;8.57;;
40058;SDS011;25763;49.972;8.568;2023-04-03T07:01:08;8.90;;;8.30;;
40058;SDS011;25763;49.972;8.568;2023-04-03T07:03:36;8.95;;;8.35;;
40058;SDS011;25763;49.972;8.568;2023-04-03T07:06:02;9.30;;;8.70;;
40058;SDS011;25763;49.972;8.568;2023-04-03T07:08:29;10.77;;;10.07;;
40058;SDS011;25763;49.972;8.568;2023-04-03T07:10:54;10.48;;;9.57;;
40058;SDS011;25763;49.972;8.568;2023-04-03T07:13:20;10.52;;;9.93;;
40058;SDS011;25763;49.972;8.568;2023-04-03T07:15:45;10.25;;;9.65;;
40058;SDS011;25763;49.972;8.568;2023-04-03T07:18:11;10.75;;;10.05;;
40058;SDS011;25763;49.972;8.568;2023-04-03T07:20:36;10.68;;;9.95;;
40058;SDS011;25763;49.972;8.568;2023-04-03T07:23:01;25.88;;;9.35;;
40058;SDS011;25763;49.972;8.568;2023-04-03T07:25:27;9.35;;;8.75;;
40058;SDS011;25763;49.972;8.568;2023-04-03T07:27:53;9.25;;;8.65;;
40058;SDS011;25763;49.972;8.568;2023-04-03T07:30:19;9.65;;;9.05;;
40058;SDS011;25763;49.972;8.568;2023-04-03T07:32:45;10.02;;;9.32;;
40058;SDS011;25763;49.972;8.568;2023-04-03T07:35:11;10.68;;;9.88;;
40058;SDS011;25763;49.972;8.568;2023-04-03T07:37:37;10.27;;;9.38;;
40058;SDS011;25763;49.972;8.568;2023-04-03T07:40:02;9.50;;;8.90;;
40058;SDS011;25763;49.972;8.568;2023-04-03T07:42:28;9.88;;;9.27;;
40058;SDS011;25763;49.972;8.568;2023-04-03T07:44:54;9.23;;;8.63;;
40058;SDS011;25763;49.972;8.568;2023-04-03T07:47:20;8.90;;;8.30;;
40058;SDS011;25763;49.972;8.568;2023-04-03T07:49:46;9.48;;;8.88;;
40058;SDS011;25763;49.972;8.568;2023-04-03T07:52:12;9.10;;;8.50;;
40058;SDS011;25763;49.972;8.568;2023-04-03T07:54:39;8.95;;;8.35;;
40058;SDS011;25763;49.972;8.568;2023-04-03T07:57:05;10.38;;;9.68;;
40058;SDS011;25763;49.972;8.568;2023-04-03T07:59:30;10.43;;;9.82;;
40058;SDS011;25763;49.972;8.568;2023-04-03T08:01:56;9.30;;;8.70;;
40058;SDS011;25763;49.972;8.568;2023-04-03T08:04:21;9.52;;;8.93;;
40058;SDS011;25763;49.972;8.568;2023-04-03T08:06:47;10.93;;;10.23;;
40058;SDS011;25763;49.972;8.568;2023-04-03T08:09:13;9.63;;;9.02;;
40058;SDS011;25763;49.972;8.568;2023-04-03T08:11:40;9.88;;;9.05;;
40058;SDS011;25763;49.972;8.568;2023-04-03T08:14:05;9.70;;;9.10;;
40058;SDS011;25763;49.972;8.568;2023-04-03T08:16:31;9.63;;;9.02;;
40058;SDS011;25763;49.972;8.568;2023-04-03T08:18:56;10.30;;;9.70;;
40058;SDS011;25763;49.972;8.568;2023-04-03T08:21:22;10.50;;;9.75;;
40058;SDS011;25763;49.972;8.568;2023-04-03T08:23:48;9.48;;;8.88;;
40058;SDS011;25763;49.972;8.568;2023-04-03T08:26:16;9.23;;;8.63;;
40058;SDS011;25763;49.972;8.568;2023-04-03T08:28:43;10.60;;;9.70;;
40058;SDS011;25763;49.972;8.568;2023-04-03T08:31:09;10.20;;;9.60;;
40058;SDS011;25763;49.972;8.568;2023-04-03T08:33:37;9.98;;;9.38;;
40058;SDS011;25763;49.972;8.568;2023-04-03T08:36:04;9.43;;;8.82;;
40058;SDS011;25763;49.972;8.568;2023-04-03T08:38:30;10.18;;;9.57;;
40058;SDS011;25763;49.972;8.568;2023-04-03T08:41:01;9.80;;;9.20;;
40058;SDS011;25763;49.972;8.568;2023-04-03T08:43:37;10.10;;;9.40;;
40058;SDS011;25763;49.972;8.568;2023-04-03T08:46:13;11.13;;;10.43;;
40058;SDS011;25763;49.972;8.568;2023-04-03T08:48:42;10.60;;;10.00;;
40058;SDS011;25763;49.972;8.568;2023-04-03T08:51:13;10.00;;;9.40;;
40058;SDS011;25763;49.972;8.568;2023-04-03T08:53:46;10.88;;;10.18;;
40058;SDS011;25763;49.972;8.568;2023-04-03T08:56:36;12.10;;;11.02;;
40058;SDS011;25763;49.972;8.568;2023-04-03T08:59:03;12.70;;;11.90;;
40058;SDS011;25763;49.972;8.568;2023-04-03T09:01:38;13.25;;;12.45;;
40058;SDS011;25763;49.972;8.568;2023-04-03T09:04:13;13.20;;;12.43;;
40058;SDS011;25763;49.972;8.568;2023-04-03T09:06:41;13.88;;;13.07;;
40058;SDS011;25763;49.972;8.568;2023-04-03T09:12:25;13.57;;;12.77;;
40058;SDS011;25763;49.972;8.568;2023-04-03T09:15:02;11.55;;;10.80;;
40058;SDS011;25763;49.972;8.568;2023-04-03T09:23:46;11.75;;;11.05;;
40058;SDS011;25763;49.972;8.568;2023-04-03T09:26:17;11.00;;;10.20;;
40058;SDS011;25763;49.972;8.568;2023-04-03T09:28:46;9.90;;;9.30;;
40058;SDS011;25763;49.972;8.568;2023-04-03T09:31:17;10.60;;;9.90;;
40058;SDS011;25763;49.972;8.568;2023-04-03T09:33:57;10.00;;;9.15;;
40058;SDS011;25763;49.972;8.568;2023-04-03T09:36:42;10.30;;;9.70;;
40058;SDS011;25763;49.972;8.568;2023-04-03T09:41:35;9.63;;;9.02;;
40058;SDS011;25763;49.972;8.568;2023-04-03T09:44:00;10.98;;;10.27;;
40058;SDS011;25763;49.972;8.568;2023-04-03T09:46:30;10.55;;;9.85;;
40058;SDS011;25763;49.972;8.568;2023-04-03T09:51:25;9.57;;;8.98;;
40058;SDS011;25763;49.972;8.568;2023-04-03T09:53:52;10.80;;;10.05;;
40058;SDS011;25763;49.972;8.568;2023-04-03T09:58:50;10.07;;;9.48;;
40058;SDS011;25763;49.972;8.568;2023-04-03T10:01:39;11.18;;;10.48;;
40058;SDS011;25763;49.972;8.568;2023-04-03T10:09:21;11.43;;;10.73;;
40058;SDS011;25763;49.972;8.568;2023-04-03T10:11:59;11.02;;;10.32;;
40058;SDS011;25763;49.972;8.568;2023-04-03T10:14:26;10.63;;;9.93;;
40058;SDS011;25763;49.972;8.568;2023-04-03T10:16:59;13.13;;;12.23;;
40058;SDS011;25763;49.972;8.568;2023-04-03T10:19:36;13.30;;;12.32;;
40058;SDS011;25763;49.972;8.568;2023-04-03T10:27:55;12.82;;;11.68;;
40058;SDS011;25763;49.972;8.568;2023-04-03T10:30:29;13.23;;;12.43;;
40058;SDS011;25763;49.972;8.568;2023-04-03T10:47:32;12.85;;;12.15;;
40058;SDS011;25763;49.972;8.568;2023-04-03T10:55:38;13.88;;;12.98;;
40058;SDS011;25763;49.972;8.568;2023-04-03T10:58:34;14.63;;;13.82;;
40058;SDS011;25763;49.972;8.568;2023-04-03T11:01:02;11.73;;;11.02;;
40058;SDS011;25763;49.972;8.568;2023-04-03T11:03:36;12.65;;;11.93;;
40058;SDS011;25763;49.972;8.568;2023-04-03T11:06:07;11.98;;;11.27;;
40058;SDS011;25763;49.972;8.568;2023-04-03T11:08:40;13.48;;;12.57;;
40058;SDS011;25763;49.972;8.568;2023-04-03T11:11:18;12.90;;;12.10;;
40058;SDS011;25763;49.972;8.568;2023-04-03T11:14:03;13.70;;;12.90;;
40058;SDS011;25763;49.972;8.568;2023-04-03T11:16:31;12.52;;;11.82;;
40058;SDS011;25763;49.972;8.568;2023-04-03T11:19:21;14.00;;;13.20;;
40058;SDS011;25763;49.972;8.568;2023-04-03T11:21:56;16.02;;;12.77;;
40058;SDS011;25763;49.972;8.568;2023-04-03T11:24:27;13.25;;;12.45;;
40058;SDS011;25763;49.972;8.568;2023-04-03T11:26:55;14.80;;;13.63;;
40058;SDS011;25763;49.972;8.568;2023-04-03T11:29:23;12.10;;;11.40;;
40058;SDS011;25763;49.972;8.568;2023-04-03T11:34:40;13.25;;;12.45;;
40058;SDS011;25763;49.972;8.568;2023-04-03T11:42:48;12.02;;;11.32;;
40058;SDS011;25763;49.972;8.568;2023-04-03T11:45:15;12.02;;;11.32;;
40058;SDS011;25763;49.972;8.568;2023-04-03T11:47:46;11.05;;;10.35;;
40058;SDS011;25763;49.972;8.568;2023-04-03T12:05:55;13.80;;;12.63;;
40058;SDS011;25763;49.972;8.568;2023-04-03T12:13:40;16.27;;;15.38;;
40058;SDS011;25763;49.972;8.568;2023-04-03T12:26:48;21.00;;;19.90;;
40058;SDS011;25763;49.972;8.568;2023-04-03T12:37:49;21.95;;;20.67;;
40058;SDS011;25763;49.972;8.568;2023-04-03T12:48:37;20.85;;;19.65;;
40058;SDS011;25763;49.972;8.568;2023-04-03T12:51:21;18.98;;;17.95;;
40058;SDS011;25763;49.972;8.568;2023-04-03T12:53:52;19.70;;;18.58;;
40058;SDS011;25763;49.972;8.568;2023-04-03T12:56:26;16.55;;;15.65;;
40058;SDS011;25763;49.972;8.568;2023-04-03T12:59:12;16.52;;;15.63;;
40058;SDS011;25763;49.972;8.568;2023-04-03T13:01:40;17.13;;;16.13;;
40058;SDS011;25763;49.972;8.568;2023-04-03T13:04:05;17.95;;;16.75;;
40058;SDS011;25763;49.972;8.568;2023-04-03T13:06:33;18.77;;;17.77;;
40058;SDS011;25763;49.972;8.568;2023-04-03T13:09:03;20.85;;;19.73;;
40058;SDS011;25763;49.972;8.568;2023-04-03T13:11:34;18.67;;;17.58;;
40058;SDS011;25763;49.972;8.568;2023-04-03T13:14:04;18.83;;;17.80;;
40058;SDS011;25763;49.972;8.568;2023-04-03T13:16:39;16.55;;;15.65;;
40058;SDS011;25763;49.972;8.568;2023-04-03T13:19:06;15.98;;;15.07;;
40058;SDS011;25763;49.972;8.568;2023-04-03T13:21:41;15.77;;;14.88;;
40058;SDS011;25763;49.972;8.568;2023-04-03T13:24:07;16.73;;;15.63;;
40058;SDS011;25763;49.972;8.568;2023-04-03T13:26:34;16.55;;;15.65;;
40058;SDS011;25763;49.972;8.568;2023-04-03T13:29:02;18.42;;;17.42;;
40058;SDS011;25763;49.972;8.568;2023-04-03T13:31:29;17.20;;;16.20;;
40058;SDS011;25763;49.972;8.568;2023-04-03T13:36:35;19.90;;;18.80;;
40058;SDS011;25763;49.972;8.568;2023-04-03T13:39:18;19.38;;;18.30;;
40058;SDS011;25763;49.972;8.568;2023-04-03T13:41:49;17.67;;;16.67;;
40058;SDS011;25763;49.972;8.568;2023-04-03T13:49:27;15.40;;;14.50;;
40058;SDS011;25763;49.972;8.568;2023-04-03T13:54:47;16.10;;;15.20;;
40058;SDS011;25763;49.972;8.568;2023-04-03T13:57:16;17.58;;;16.48;;
40058;SDS011;25763;49.972;8.568;2023-04-03T13:59:42;17.65;;;16.50;;
40058;SDS011;25763;49.972;8.568;2023-04-03T14:04:45;17.90;;;16.90;;
40058;SDS011;25763;49.972;8.568;2023-04-03T14:07:13;19.80;;;18.70;;
40058;SDS011;25763;49.972;8.568;2023-04-03T14:09:41;18.70;;;17.65;;
40058;SDS011;25763;49.972;8.568;2023-04-03T14:12:08;19.20;;;18.15;;
40058;SDS011;25763;49.972;8.568;2023-04-03T14:14:40;17.65;;;16.65;;
40058;SDS011;25763;49.972;8.568;2023-04-03T14:17:16;19.80;;;18.70;;
40058;SDS011;25763;49.972;8.568;2023-04-03T14:19:44;18.23;;;17.23;;
40058;SDS011;25763;49.972;8.568;2023-04-03T14:22:15;17.15;;;16.15;;
40058;SDS011;25763;49.972;8.568;2023-04-03T14:24:47;20.73;;;19.63;;
40058;SDS011;25763;49.972;8.568;2023-04-03T14:27:17;17.63;;;16.63;;
40058;SDS011;25763;49.972;8.568;2023-04-03T14:29:49;17.48;;;16.48;;
40058;SDS011;25763;49.972;8.568;2023-04-03T14:32:16;16.98;;;15.98;;
40058;SDS011;25763;49.972;8.568;2023-04-03T14:34:43;17.98;;;16.98;;
40058;SDS011;25763;49.972;8.568;2023-04-03T14:37:11;16.50;;;15.55;;
40058;SDS011;25763;49.972;8.568;2023-04-03T14:39:38;20.02;;;18.92;;
40058;SDS011;25763;49.972;8.568;2023-04-03T14:42:04;17.38;;;16.27;;
40058;SDS011;25763;49.972;8.568;2023-04-03T14:44:30;17.23;;;16.23;;
40058;SDS011;25763;49.972;8.568;2023-04-03T14:46:55;16.70;;;15.70;;
40058;SDS011;25763;49.972;8.568;2023-04-03T14:49:22;16.00;;;15.10;;
40058;SDS011;25763;49.972;8.568;2023-04-03T14:51:50;15.55;;;14.65;;
40058;SDS011;25763;49.972;8.568;2023-04-03T14:54:17;17.08;;;15.98;;
40058;SDS011;25763;49.972;8.568;2023-04-03T14:56:44;16.88;;;15.70;;
40058;SDS011;25763;49.972;8.568;2023-04-03T14:59:13;14.73;;;13.93;;
40058;SDS011;25763;49.972;8.568;2023-04-03T15:01:40;15.73;;;14.80;;
40058;SDS011;25763;49.972;8.568;2023-04-03T15:04:10;16.75;;;15.50;;
40058;SDS011;25763;49.972;8.568;2023-04-03T15:06:38;15.82;;;14.93;;
40058;SDS011;25763;49.972;8.568;2023-04-03T15:09:03;17.38;;;16.33;;
40058;SDS011;25763;49.972;8.568;2023-04-03T15:11:29;16.42;;;15.52;;
40058;SDS011;25763;49.972;8.568;2023-04-03T15:13:54;16.00;;;15.10;;
40058;SDS011;25763;49.972;8.568;2023-04-03T15:16:20;16.92;;;15.93;;
40058;SDS011;25763;49.972;8.568;2023-04-03T15:18:46;16.98;;;16.08;;
40058;SDS011;25763;49.972;8.568;2023-04-03T15:21:12;19.85;;;18.75;;
40058;SDS011;25763;49.972;8.568;2023-04-03T15:23:37;17.80;;;16.80;;
40058;SDS011;25763;49.972;8.568;2023-04-03T15:26:03;17.88;;;16.88;;
40058;SDS011;25763;49.972;8.568;2023-04-03T15:30:55;20.45;;;19.35;;
40058;SDS011;25763;49.972;8.568;2023-04-03T15:33:20;17.73;;;16.73;;
40058;SDS011;25763;49.972;8.568;2023-04-03T15:35:46;17.27;;;16.27;;
40058;SDS011;25763;49.972;8.568;2023-04-03T15:38:11;19.17;;;17.98;;
40058;SDS011;25763;49.972;8.568;2023-04-03T15:40:37;20.40;;;19.20;;
40058;SDS011;25763;49.972;8.568;2023-04-03T15:43:02;19.20;;;18.10;;
40058;SDS011;25763;49.972;8.568;2023-04-03T15:45:28;20.77;;;19.58;;
40058;SDS011;25763;49.972;8.568;2023-04-03T15:47:55;18.25;;;17.25;;
40058;SDS011;25763;49.972;8.568;2023-04-03T15:50:21;18.83;;;17.83;;
40058;SDS011;25763;49.972;8.568;2023-04-03T15:52:48;18.38;;;17.38;;
40058;SDS011;25763;49.972;8.568;2023-04-03T15:55:19;17.07;;;16.13;;
40058;SDS011;25763;49.972;8.568;2023-04-03T15:57:48;17.17;;;16.08;;
40058;SDS011;25763;49.972;8.568;2023-04-03T16:00:14;16.85;;;15.85;;
40058;SDS011;25763;49.972;8.568;2023-04-03T16:02:40;16.25;;;15.35;;
40058;SDS011;25763;49.972;8.568;2023-04-03T16:05:06;16.60;;;15.70;;
40058;SDS011;25763;49.972;8.568;2023-04-03T16:07:31;17.40;;;16.40;;
40058;SDS011;25763;49.972;8.568;2023-04-03T16:09:57;16.70;;;15.80;;
40058;SDS011;25763;49.972;8.568;2023-04-03T16:12:22;15.65;;;14.75;;
40058;SDS011;25763;49.972;8.568;2023-04-03T16:14:48;16.08;;;15.18;;
40058;SDS011;25763;49.972;8.568;2023-04-03T16:17:13;15.52;;;14.63;;
40058;SDS011;25763;49.972;8.568;2023-04-03T16:19:39;13.50;;;12.70;;
40058;SDS011;25763;49.972;8.568;2023-04-03T16:22:04;14.82;;;13.93;;
40058;SDS011;25763;49.972;8.568;2023-04-03T16:24:30;14.70;;;13.90;;
40058;SDS011;25763;49.972;8.568;2023-04-03T16:26:55;14.30;;;13.50;;
40058;SDS011;25763;49.972;8.568;2023-04-03T16:29:21;15.05;;;14.20;;
40058;SDS011;25763;49.972;8.568;2023-04-03T16:31:46;14.35;;;13.55;;
40058;SDS011;25763;49.972;8.568;2023-04-03T16:34:12;13.55;;;12.75;;
40058;SDS011;25763;49.972;8.568;2023-04-03T16:36:37;14.35;;;13.55;;
40058;SDS011;25763;49.972;8.568;2023-04-03T16:39:03;13.65;;;12.85;;
40058;SDS011;25763;49.972;8.568;2023-04-03T16:41:29;12.27;;;11.57;;
40058;SDS011;25763;49.972;8.568;2023-04-03T16:43:54;12.20;;;11.50;;